Time;durP1;ratioP1;P1;durP2;ratioP2;P2;SDS_P1;SDS_P2;PMS_P1;PMS_P2;Temp;Humidity;BMP_temperature;BMP_pressure;BME280_temperature;BME280_humidity;BME280_pressure;Samples;Min_cycle;Max_cycle;Signal;HPM_P1;HPM_P2
2021/10/18 00:01:17;;;;;;;3.60;3.30;;;;;;;21.20;62.51;98046.53;5009606;28;20685;-67
2021/10/18 00:03:44;;;;;;;3.00;2.80;;;;;;;20.42;62.71;97917.31;5002234;28;20199;-66
2021/10/18 00:06:11;;;;;;;3.60;3.30;;;;;;;21.28;62.73;98065.59;5009609;28;20715;-66
2021/10/18 00:08:37;;;;;;;3.80;3.50;;;;;;;20.62;62.57;97949.63;5010442;28;20642;-67
2021/10/18 00:11:04;;;;;;;3.40;3.20;;;;;;;21.12;62.44;98036.81;5010518;28;20225;-69
2021/10/18 00:13:50;;;;;;;3.43;3.20;;;;;;;21.28;62.79;98060.47;5009934;28;20655;-63
2021/10/18 00:16:17;;;;;;;3.40;3.10;;;;;;;21.29;62.79;98064.78;5010302;28;20205;-66
2021/10/18 00:18:44;;;;;;;3.00;2.80;;;;;;;21.26;62.53;98057.00;5010447;28;20194;-67
2021/10/18 00:21:10;;;;;;;3.20;3.00;;;;;;;21.29;62.79;98067.34;5002227;28;20252;-67
2021/10/18 00:23:37;;;;;;;3.43;3.13;;;;;;;21.26;62.57;98068.91;5007490;28;20622;-66
2021/10/18 00:26:03;;;;;;;4.03;3.67;;;;;;;19.91;62.79;97848.06;4998054;28;20281;-65
2021/10/18 00:28:30;;;;;;;3.10;2.90;;;;;;;21.00;62.60;98015.91;5009531;28;20198;-65
2021/10/18 00:30:57;;;;;;;3.60;3.30;;;;;;;20.60;62.73;97944.47;5010355;28;20256;-68
2021/10/18 00:33:23;;;;;;;3.50;3.20;;;;;;;21.04;62.62;98022.88;5010023;28;20268;-66
2021/10/18 00:35:50;;;;;;;3.50;3.20;;;;;;;21.28;62.46;98063.03;5009466;28;20226;-66
2021/10/18 00:38:17;;;;;;;3.10;2.90;;;;;;;21.19;62.42;98049.91;5010345;28;20260;-65
2021/10/18 00:40:43;;;;;;;3.13;2.93;;;;;;;21.05;62.60;98033.16;5009308;28;20598;-66
2021/10/18 00:43:10;;;;;;;3.20;3.00;;;;;;;21.22;62.53;98059.38;5009469;28;20588;-66
2021/10/18 00:45:37;;;;;;;3.47;3.17;;;;;;;21.28;62.81;98069.81;5010074;28;20257;-66
2021/10/18 00:48:04;;;;;;;3.53;3.23;;;;;;;21.18;62.62;98055.84;5007112;28;20194;-67
2021/10/18 00:50:31;;;;;;;3.57;3.27;;;;;;;21.27;62.31;98074.09;5008451;28;20256;-66
2021/10/18 00:52:58;;;;;;;3.83;3.53;;;;;;;21.28;62.70;98074.94;5009849;28;20222;-65
2021/10/18 00:55:24;;;;;;;3.70;3.40;;;;;;;20.27;62.68;97899.72;5010033;28;20221;-69
2021/10/18 00:57:51;;;;;;;3.57;3.27;;;;;;;21.28;62.82;98070.72;4993881;28;20230;-64
2021/10/18 01:00:18;;;;;;;3.57;3.27;;;;;;;21.24;63.03;98061.19;5003703;28;20385;-65
2021/10/18 01:02:44;;;;;;;3.70;3.40;;;;;;;21.28;62.64;98069.81;5008643;28;20301;-65
2021/10/18 01:05:12;;;;;;;3.13;2.93;;;;;;;21.17;62.81;98048.13;5003245;28;20580;-68
2021/10/18 01:07:38;;;;;;;3.77;3.47;;;;;;;21.21;62.92;98053.41;4998324;28;20207;-67
2021/10/18 01:10:05;;;;;;;3.23;3.00;;;;;;;21.03;62.70;98023.69;4993468;28;20261;-66
2021/10/18 01:12:32;;;;;;;3.47;3.17;;;;;;;21.29;62.79;98067.34;5003125;28;20254;-66
2021/10/18 01:14:58;;;;;;;3.00;2.80;;;;;;;20.94;62.76;98003.75;5013467;28;20230;-66
2021/10/18 01:17:25;;;;;;;3.50;3.23;;;;;;;21.29;62.56;98058.81;5013283;28;20198;-66
2021/10/18 01:19:52;;;;;;;3.20;3.00;;;;;;;20.81;62.78;97990.44;5012818;28;20227;-67
2021/10/18 01:22:18;;;;;;;3.60;3.30;;;;;;;21.22;62.70;98060.25;5006415;28;20222;-66
2021/10/18 01:24:45;;;;;;;3.53;3.23;;;;;;;20.74;62.76;97975.66;5011701;28;20252;-66
2021/10/18 01:27:12;;;;;;;3.70;3.40;;;;;;;20.96;62.66;98014.06;5013003;28;20622;-66
2021/10/18 01:29:38;;;;;;;3.37;3.17;;;;;;;21.21;62.98;98057.63;4987235;28;20344;-68
2021/10/18 01:32:05;;;;;;;3.37;3.13;;;;;;;21.20;62.69;98049.09;5012813;28;20218;-66
2021/10/18 01:34:32;;;;;;;3.80;3.50;;;;;;;21.29;62.72;98063.94;5004899;28;20199;-69
2021/10/18 01:37:00;;;;;;;3.10;2.90;;;;;;;21.28;62.78;98062.16;5003287;28;20222;-67
2021/10/18 01:39:27;;;;;;;3.43;3.13;;;;;;;21.18;62.49;98053.28;5012803;28;20230;-69
2021/10/18 01:41:53;;;;;;;3.67;3.37;;;;;;;21.27;62.80;98079.22;5013071;28;20257;-68
2021/10/18 01:44:20;;;;;;;3.60;3.30;;;;;;;21.02;62.57;98038.13;5012996;28;20195;-66
2021/10/18 01:46:46;;;;;;;3.33;3.07;;;;;;;21.23;63.17;98076.47;5009348;28;20248;-66
2021/10/18 01:49:13;;;;;;;3.53;3.23;;;;;;;21.28;62.65;98085.16;5013047;28;20802;-66
2021/10/18 01:51:40;;;;;;;3.30;3.10;;;;;;;21.27;62.64;98094.53;5011985;28;20218;-67
2021/10/18 01:54:06;;;;;;;3.73;3.43;;;;;;;21.17;62.64;98079.63;5012241;28;20199;-67
2021/10/18 01:56:34;;;;;;;3.43;3.13;;;;;;;21.26;62.64;98087.66;5004887;28;20337;-66
2021/10/18 01:59:01;;;;;;;3.33;3.03;;;;;;;21.16;62.47;98064.25;5012525;28;20194;-66
2021/10/18 02:01:27;;;;;;;3.37;3.17;;;;;;;21.27;62.69;98086.00;5011090;28;20325;-66
2021/10/18 02:03:54;;;;;;;3.63;3.33;;;;;;;21.12;63.05;98060.72;5011549;28;20202;-69
2021/10/18 02:06:21;;;;;;;3.63;3.33;;;;;;;21.28;62.68;98086.06;4998299;28;20663;-66
2021/10/18 02:08:48;;;;;;;3.50;3.20;;;;;;;21.05;62.66;98040.81;5012691;28;20233;-66
2021/10/18 02:11:14;;;;;;;3.63;3.20;;;;;;;21.28;62.74;98082.63;5010674;28;20245;-67
2021/10/18 02:13:41;;;;;;;3.60;3.30;;;;;;;21.28;62.81;98083.50;5011811;28;20671;-69
2021/10/18 02:16:07;;;;;;;3.40;3.13;;;;;;;21.29;62.69;98081.81;5010703;28;20735;-67
2021/10/18 02:18:34;;;;;;;3.80;3.50;;;;;;;21.28;62.48;98087.72;5010661;28;20202;-66
2021/10/18 02:21:01;;;;;;;3.70;3.40;;;;;;;21.21;62.96;98075.53;5011802;28;20739;-66
2021/10/18 02:23:28;;;;;;;3.17;2.90;;;;;;;21.28;62.60;98082.63;5012251;28;20209;-68
2021/10/18 02:25:55;;;;;;;3.80;3.20;;;;;;;20.52;62.70;97947.53;5010726;28;20324;-66
2021/10/18 02:28:22;;;;;;;3.40;3.10;;;;;;;21.27;62.76;98084.31;5010785;28;20583;-66
2021/10/18 02:30:49;;;;;;;3.33;3.03;;;;;;;21.16;62.74;98064.25;5009765;28;20257;-65
2021/10/18 02:33:15;;;;;;;3.00;2.80;;;;;;;21.21;62.70;98067.84;5011967;28;20606;-65
2021/10/18 02:35:42;;;;;;;3.90;3.60;;;;;;;20.78;62.65;97998.81;5008850;28;20273;-66
2021/10/18 02:38:09;;;;;;;3.47;3.17;;;;;;;21.26;62.47;98066.38;5003540;28;20238;-68
2021/10/18 02:40:35;;;;;;;3.60;3.30;;;;;;;21.23;62.74;98063.69;5009762;28;20625;-66
2021/10/18 02:43:02;;;;;;;3.37;3.17;;;;;;;21.26;62.86;98068.91;5011264;28;20276;-66
2021/10/18 02:45:28;;;;;;;3.63;3.33;;;;;;;21.26;62.78;98076.59;5011072;28;20237;-66
2021/10/18 02:47:55;;;;;;;3.70;3.40;;;;;;;20.77;62.56;97989.44;5009875;28;20292;-69
2021/10/18 02:50:22;;;;;;;4.10;3.70;;;;;;;20.89;62.59;98010.34;5011406;28;20257;-66
2021/10/18 02:52:48;;;;;;;3.83;3.53;;;;;;;20.28;62.64;97921.88;5011230;28;20253;-64
2021/10/18 02:55:15;;;;;;;3.90;3.60;;;;;;;21.26;62.74;98082.56;5004018;28;20281;-66
2021/10/18 02:57:41;;;;;;;3.00;2.80;;;;;;;21.22;62.58;98072.16;5009584;28;20314;-64
2021/10/18 03:00:08;;;;;;;3.73;3.43;;;;;;;21.09;62.71;98055.47;5006571;28;20226;-68
2021/10/18 03:02:35;;;;;;;3.70;3.40;;;;;;;21.28;62.71;98087.72;5010692;28;20780;-65
2021/10/18 03:05:02;;;;;;;3.47;3.17;;;;;;;20.58;62.95;97971.63;5011061;28;20206;-70
2021/10/18 03:07:29;;;;;;;3.37;3.17;;;;;;;21.11;62.35;98061.50;5011583;28;20194;-70
2021/10/18 03:09:55;;;;;;;3.50;3.20;;;;;;;21.28;62.71;98103.06;5011155;28;20253;-66
2021/10/18 03:12:22;;;;;;;3.70;3.40;;;;;;;21.10;62.53;98072.56;5010616;28;20944;-66
2021/10/18 03:14:48;;;;;;;3.60;3.30;;;;;;;21.18;62.89;98085.63;5010888;28;20256;-68
2021/10/18 03:17:15;;;;;;;3.50;3.20;;;;;;;20.94;63.16;98062.50;5011399;28;20634;-67
2021/10/18 03:19:42;;;;;;;3.20;3.00;;;;;;;21.27;62.66;98121.78;5010711;28;20230;-66
2021/10/18 03:22:08;;;;;;;3.60;3.30;;;;;;;21.27;62.74;98115.00;5011096;28;20236;-63
2021/10/18 03:24:35;;;;;;;3.27;3.03;;;;;;;21.26;62.63;98120.06;5010927;28;20233;-66
2021/10/18 03:27:01;;;;;;;3.97;3.67;;;;;;;21.25;62.81;98124.28;5011414;28;20281;-67
2021/10/18 03:29:28;;;;;;;3.93;3.63;;;;;;;20.46;62.79;97990.69;5010948;28;20747;-66
2021/10/18 03:31:55;;;;;;;3.70;3.40;;;;;;;20.42;62.69;97994.78;5009423;28;20249;-66
2021/10/18 03:34:21;;;;;;;3.63;3.33;;;;;;;21.11;62.88;98110.06;5016038;28;20289;-66
2021/10/18 03:36:48;;;;;;;3.67;3.37;;;;;;;20.59;62.51;98014.22;5012888;28;20241;-71
2021/10/18 03:39:14;;;;;;;3.70;3.40;;;;;;;21.21;63.17;98117.31;5011073;28;20226;-67
2021/10/18 03:41:41;;;;;;;3.63;3.33;;;;;;;21.16;62.73;98106.03;5011049;28;20218;-65
2021/10/18 03:44:07;;;;;;;3.70;3.40;;;;;;;21.23;62.75;98119.94;5008183;28;20205;-63
2021/10/18 03:46:34;;;;;;;4.00;3.60;;;;;;;20.52;62.63;97996.88;5010331;28;20240;-66
2021/10/18 03:49:01;;;;;;;3.30;3.00;;;;;;;21.22;62.76;98125.84;5010623;28;20202;-67
2021/10/18 03:51:27;;;;;;;3.70;3.37;;;;;;;21.26;62.76;98133.69;5003379;28;20253;-65
2021/10/18 03:53:54;;;;;;;3.80;3.50;;;;;;;21.27;62.94;98139.69;5008251;28;20267;-66
2021/10/18 03:56:20;;;;;;;3.80;3.50;;;;;;;21.02;62.72;98104.59;5010371;28;20238;-66
2021/10/18 03:58:47;;;;;;;3.50;3.20;;;;;;;21.25;62.89;98152.41;5010000;28;20238;-70
2021/10/18 04:01:14;;;;;;;3.73;3.43;;;;;;;21.27;62.67;98155.91;5010399;28;20214;-66
2021/10/18 04:03:40;;;;;;;3.77;3.47;;;;;;;21.27;62.86;98160.13;5013989;28;20197;-65
2021/10/18 04:06:07;;;;;;;3.77;3.47;;;;;;;21.12;62.88;98137.38;5008594;28;20225;-66
2021/10/18 04:08:36;;;;;;;3.97;3.57;;;;;;;21.24;62.93;98155.78;5015885;28;20230;-66
2021/10/18 04:11:03;;;;;;;3.53;3.23;;;;;;;21.27;62.96;98163.56;5013411;28;20222;-66
2021/10/18 04:13:30;;;;;;;3.80;3.50;;;;;;;20.99;62.71;98112.13;5009164;28;20225;-67
2021/10/18 04:15:56;;;;;;;3.93;3.63;;;;;;;21.10;62.66;98144.13;4996555;28;20285;-69
2021/10/18 04:18:23;;;;;;;3.70;3.40;;;;;;;21.26;62.70;98168.63;4980213;28;20253;-65
2021/10/18 04:20:50;;;;;;;3.73;3.43;;;;;;;21.13;62.39;98143.34;5011332;28;20234;-66
2021/10/18 04:23:16;;;;;;;4.17;3.87;;;;;;;20.18;62.67;97982.69;5008487;28;20198;-62
2021/10/18 04:25:43;;;;;;;3.93;3.63;;;;;;;21.26;62.65;98172.03;4986637;28;20206;-63
2021/10/18 04:28:10;;;;;;;5.57;3.60;;;;;;;21.27;62.81;98171.25;4989301;28;20195;-63
2021/10/18 04:30:37;;;;;;;4.77;4.03;;;;;;;21.15;62.69;98147.75;5003451;28;20249;-68
2021/10/18 04:33:04;;;;;;;3.70;3.40;;;;;;;21.11;62.89;98143.28;5005737;28;20222;-67
2021/10/18 04:35:30;;;;;;;4.13;3.73;;;;;;;20.73;62.88;98084.63;5003676;28;20221;-67
2021/10/18 04:37:57;;;;;;;5.50;4.07;;;;;;;21.17;62.83;98160.59;5010999;28;20199;-66
2021/10/18 04:40:23;;;;;;;6.53;3.57;;;;;;;20.99;63.25;98129.16;5011136;28;20210;-65
2021/10/18 04:42:50;;;;;;;3.90;3.60;;;;;;;21.28;62.90;98188.31;5012895;28;20284;-69
2021/10/18 04:45:17;;;;;;;5.50;4.30;;;;;;;21.28;62.81;98183.19;5015395;28;20234;-67
2021/10/18 04:47:44;;;;;;;6.50;4.20;;;;;;;21.23;63.01;98173.63;5013144;28;20241;-65
2021/10/18 04:50:11;;;;;;;7.00;4.77;;;;;;;21.28;62.80;98177.22;4984961;28;20695;-67
2021/10/18 04:52:37;;;;;;;7.27;4.20;;;;;;;21.28;62.86;98188.31;5003966;28;20218;-65
2021/10/18 04:55:04;;;;;;;8.53;4.33;;;;;;;21.29;62.88;98184.09;5004070;28;20198;-64
2021/10/18 04:57:31;;;;;;;6.30;4.60;;;;;;;21.21;62.81;98173.56;5002318;28;20617;-67
2021/10/18 04:59:58;;;;;;;6.30;4.33;;;;;;;21.28;62.81;98185.75;5006741;28;20226;-66
2021/10/18 05:02:24;;;;;;;5.80;4.13;;;;;;;21.29;62.19;98194.31;5014183;28;20214;-66
2021/10/18 05:04:51;;;;;;;9.33;6.80;;;;;;;21.30;61.83;98198.59;5014234;28;20285;-68
2021/10/18 05:07:17;;;;;;;12.50;7.90;;;;;;;21.29;61.52;98200.28;5014716;28;20198;-68
2021/10/18 05:09:44;;;;;;;17.00;9.67;;;;;;;21.29;61.06;98207.94;5014966;28;20289;-66
2021/10/18 05:12:11;;;;;;;17.37;12.13;;;;;;;20.98;60.09;98156.38;5042764;23;20576;-61
2021/10/18 05:14:37;;;;;;;17.20;13.50;;;;;;;21.24;60.13;98206.91;5012998;28;20236;-61
2021/10/18 05:17:04;;;;;;;19.53;14.50;;;;;;;21.29;59.27;98207.09;5012124;28;20225;-62
2021/10/18 05:19:31;;;;;;;23.40;18.17;;;;;;;21.28;58.18;98215.56;5027558;28;20654;-61
2021/10/18 05:21:57;;;;;;;25.50;19.57;;;;;;;21.27;58.36;98217.25;5029886;28;20263;-62
2021/10/18 05:24:24;;;;;;;25.83;20.17;;;;;;;21.28;57.87;98210.44;5028901;28;20230;-62
2021/10/18 05:26:50;;;;;;;27.57;21.27;;;;;;;21.28;57.35;98213.00;5019395;28;20217;-62
2021/10/18 05:29:17;;;;;;;27.27;20.43;;;;;;;21.27;57.13;98214.69;5023998;28;20208;-62
2021/10/18 05:31:43;;;;;;;28.70;21.53;;;;;;;21.27;56.73;98216.38;5019273;28;20250;-62
2021/10/18 05:34:10;;;;;;;28.20;21.33;;;;;;;21.26;56.69;98218.06;5024113;28;20674;-61
2021/10/18 05:36:37;;;;;;;26.93;20.67;;;;;;;21.26;56.22;98224.88;5025641;28;20289;-62
2021/10/18 05:39:03;;;;;;;27.67;20.87;;;;;;;21.25;55.74;98225.66;5020536;28;20599;-62
2021/10/18 05:41:30;;;;;;;26.90;20.63;;;;;;;21.25;55.43;98236.75;5020713;28;20722;-62
2021/10/18 05:43:56;;;;;;;29.87;22.73;;;;;;;21.24;55.60;98244.38;5021780;28;20756;-62
2021/10/18 05:46:23;;;;;;;29.70;21.57;;;;;;;21.24;55.77;98236.69;5024256;28;20288;-62
2021/10/18 05:48:50;;;;;;;27.67;20.93;;;;;;;21.24;56.42;98236.69;5024350;28;20210;-62
2021/10/18 05:51:18;;;;;;;28.63;21.50;;;;;;;21.24;57.19;98240.13;5013926;28;20218;-62
2021/10/18 05:53:44;;;;;;;27.50;20.43;;;;;;;21.24;57.20;98242.69;5020999;28;20316;-62
2021/10/18 05:56:11;;;;;;;25.17;19.60;;;;;;;21.24;57.73;98242.69;5018497;28;20739;-62
2021/10/18 05:58:37;;;;;;;23.53;18.77;;;;;;;21.25;58.53;98241.88;5020669;28;20198;-62
2021/10/18 06:01:04;;;;;;;24.50;19.37;;;;;;;21.25;58.37;98249.53;5018989;28;20288;-61
2021/10/18 06:03:31;;;;;;;23.23;17.20;;;;;;;21.25;58.48;98238.44;5023298;28;20905;-62
2021/10/18 06:06:00;;;;;;;25.47;18.47;;;;;;;21.25;58.95;98249.53;5021103;28;20198;-62
2021/10/18 06:08:48;;;;;;;20.63;16.63;;;;;;;21.24;58.71;98255.47;5021638;28;20234;-64
2021/10/18 06:11:16;;;;;;;21.80;17.47;;;;;;;21.25;59.14;98269.13;5020449;28;20213;-64
2021/10/18 06:13:43;;;;;;;26.03;19.43;;;;;;;21.23;57.31;98269.06;5020166;28;20222;-63
2021/10/18 06:16:10;;;;;;;26.17;19.33;;;;;;;21.24;56.84;98267.38;5026412;28;20240;-63
2021/10/18 06:18:36;;;;;;;29.27;21.43;;;;;;;21.23;55.86;98268.19;5025396;28;20198;-64
2021/10/18 06:21:03;;;;;;;25.37;19.03;;;;;;;21.22;56.17;98274.97;5029088;28;20206;-64
2021/10/18 06:23:30;;;;;;;25.13;19.27;;;;;;;21.22;56.73;98280.09;5021358;28;20730;-64
2021/10/18 06:25:57;;;;;;;26.40;19.67;;;;;;;21.22;57.08;98289.44;5030202;28;20198;-64
2021/10/18 06:28:23;;;;;;;26.93;19.10;;;;;;;21.22;57.45;98281.78;5027606;28;20289;-64
2021/10/18 06:30:50;;;;;;;24.73;18.93;;;;;;;21.23;57.63;98291.22;5029705;28;20221;-64
2021/10/18 06:33:20;;;;;;;23.30;17.90;;;;;;;21.23;58.44;98293.75;5030580;28;20280;-64
2021/10/18 06:35:47;;;;;;;21.77;17.37;;;;;;;21.23;58.31;98297.16;5025796;28;20232;-64
2021/10/18 06:38:15;;;;;;;23.17;18.17;;;;;;;20.99;58.47;98262.03;5020604;28;20294;-64
2021/10/18 06:40:42;;;;;;;21.53;17.03;;;;;;;21.22;58.75;98308.22;5001976;28;20249;-64
2021/10/18 06:43:09;;;;;;;20.70;16.77;;;;;;;21.22;58.77;98312.44;5016884;28;20250;-64
2021/10/18 06:45:35;;;;;;;21.27;16.77;;;;;;;21.22;58.31;98317.56;5022681;28;20290;-64
2021/10/18 06:48:05;;;;;;;21.07;16.83;;;;;;;21.22;58.59;98313.34;5003701;28;20201;-64
2021/10/18 06:50:32;;;;;;;19.97;16.53;;;;;;;21.21;59.18;98316.72;5026947;28;20579;-64
2021/10/18 06:52:59;;;;;;;21.83;16.43;;;;;;;21.22;58.34;98313.34;5020938;28;20249;-64
2021/10/18 06:55:27;;;;;;;21.13;16.07;;;;;;;21.22;58.91;98313.34;5022325;28;20523;-64
2021/10/18 06:57:56;;;;;;;22.13;16.53;;;;;;;21.22;59.29;98323.56;5026511;28;20268;-64
2021/10/18 07:00:22;;;;;;;20.57;16.23;;;;;;;21.22;59.39;98317.56;5025584;28;20242;-64
2021/10/18 07:02:49;;;;;;;21.47;16.17;;;;;;;21.22;58.93;98323.56;5028363;28;20249;-64
2021/10/18 07:05:15;;;;;;;22.20;16.50;;;;;;;21.24;59.38;98328.75;5028165;28;20663;-64
2021/10/18 07:07:43;;;;;;;22.10;15.53;;;;;;;21.24;59.53;98331.28;5029175;28;20202;-64
2021/10/18 07:10:09;;;;;;;18.10;15.07;;;;;;;21.23;59.65;98327.84;5029315;28;20289;-64
2021/10/18 07:12:36;;;;;;;17.97;14.90;;;;;;;21.24;59.53;98336.41;5023173;28;20305;-64
2021/10/18 07:15:04;;;;;;;18.17;14.70;;;;;;;21.23;59.84;98345.75;5017253;28;20289;-64
2021/10/18 07:17:30;;;;;;;18.47;14.13;;;;;;;21.24;59.50;98337.28;5022641;28;20288;-64
2021/10/18 07:19:57;;;;;;;18.27;14.80;;;;;;;21.23;59.86;98343.19;5024476;28;20280;-64
2021/10/18 07:22:26;;;;;;;19.13;14.53;;;;;;;21.23;59.77;98343.19;5017701;28;20253;-64
2021/10/18 07:24:53;;;;;;;19.87;15.63;;;;;;;21.24;59.90;98347.50;5021633;28;20230;-64
2021/10/18 07:27:20;;;;;;;18.73;15.07;;;;;;;21.24;59.72;98349.19;5015962;28;20288;-64
2021/10/18 07:29:47;;;;;;;19.67;14.77;;;;;;;21.25;59.86;98353.47;5022661;28;20242;-64
2021/10/18 07:32:13;;;;;;;19.23;15.00;;;;;;;21.24;59.91;98349.19;5014801;28;20229;-64
2021/10/18 07:34:40;;;;;;;19.83;14.20;;;;;;;21.25;60.07;98344.16;5018950;28;20754;-64
2021/10/18 07:37:08;;;;;;;18.23;15.13;;;;;;;21.25;59.91;98336.47;5016405;28;20230;-64
2021/10/18 07:39:35;;;;;;;18.07;14.30;;;;;;;21.24;60.24;98337.28;5014268;28;20242;-64
2021/10/18 07:42:02;;;;;;;17.80;13.83;;;;;;;21.26;59.85;98345.88;5014311;28;20249;-64
2021/10/18 07:44:29;;;;;;;16.53;13.77;;;;;;;21.26;60.43;98350.13;5016821;28;20284;-64
2021/10/18 07:46:58;;;;;;;16.90;14.50;;;;;;;21.26;60.04;98355.25;5015325;28;20718;-64
2021/10/18 07:49:28;;;;;;;16.97;13.40;;;;;;;21.26;60.22;98360.38;5018774;28;20635;-64
2021/10/18 07:51:55;;;;;;;15.00;12.53;;;;;;;21.26;60.31;98363.78;5017062;28;20288;-64
2021/10/18 07:54:27;;;;;;;14.83;12.60;;;;;;;21.26;60.28;98358.66;5022764;28;20286;-64
2021/10/18 07:56:54;;;;;;;14.43;12.80;;;;;;;21.26;60.52;98363.78;5019862;28;20282;-63
2021/10/18 07:59:20;;;;;;;15.33;12.63;;;;;;;20.93;60.21;98311.16;5015607;28;20293;-64
2021/10/18 08:01:47;;;;;;;17.47;13.07;;;;;;;21.25;60.28;98379.94;5018945;28;20285;-64
2021/10/18 08:04:14;;;;;;;16.77;11.73;;;;;;;21.25;60.20;98374.81;5018897;28;20197;-64
2021/10/18 08:06:40;;;;;;;16.43;12.93;;;;;;;21.27;60.40;98369.78;5011772;28;20229;-64
2021/10/18 08:09:09;;;;;;;17.10;13.03;;;;;;;21.27;60.08;98374.88;5010973;28;20237;-64
2021/10/18 08:11:35;;;;;;;15.67;12.63;;;;;;;21.27;60.50;98383.44;5018405;28;20264;-64
2021/10/18 08:14:02;;;;;;;14.03;11.30;;;;;;;21.28;60.51;98389.41;5013627;28;20208;-64
2021/10/18 08:16:29;;;;;;;13.87;11.30;;;;;;;21.27;60.56;98375.78;5021190;28;20271;-64
2021/10/18 08:18:55;;;;;;;16.47;12.73;;;;;;;21.29;60.47;98380.94;5026662;28;20583;-64
2021/10/18 08:21:22;;;;;;;15.60;12.47;;;;;;;21.28;60.66;98391.97;5026902;28;20715;-64
2021/10/18 08:23:49;;;;;;;14.80;12.40;;;;;;;21.29;60.63;98401.41;5022954;28;20261;-64
2021/10/18 08:26:16;;;;;;;14.23;12.03;;;;;;;21.28;60.49;98392.84;5021619;28;20726;-64
2021/10/18 08:28:42;;;;;;;13.73;11.60;;;;;;;21.29;60.58;98393.75;5029689;28;20232;-64
2021/10/18 08:31:12;;;;;;;14.73;12.23;;;;;;;21.28;60.57;98392.84;5024348;28;20285;-64
2021/10/18 08:33:38;;;;;;;15.37;12.37;;;;;;;21.29;60.61;98402.25;5021146;28;20924;-64
2021/10/18 08:36:05;;;;;;;14.13;10.97;;;;;;;21.30;60.58;98395.47;5021065;28;20232;-64
2021/10/18 08:46:06;;;;;;;12.47;11.17;;;;;;;21.29;60.53;98391.19;5008132;28;20252;-64
2021/10/18 08:48:52;;;;;;;13.77;11.27;;;;;;;21.29;60.70;98399.69;5022124;28;20564;-63
2021/10/18 08:51:19;;;;;;;14.97;11.13;;;;;;;21.29;60.80;98404.81;5025899;28;20259;-64
2021/10/18 08:53:46;;;;;;;13.77;11.40;;;;;;;21.30;60.73;98398.03;5030841;28;20253;-64
2021/10/18 08:56:12;;;;;;;13.77;11.00;;;;;;;21.30;60.73;98393.81;5015451;28;20281;-63
2021/10/18 08:58:39;;;;;;;12.63;10.67;;;;;;;21.30;60.53;98390.38;5023406;28;20244;-64
2021/10/18 09:01:05;;;;;;;12.53;10.50;;;;;;;21.30;60.87;98392.91;5021646;28;20305;-64
2021/10/18 09:03:33;;;;;;;13.93;10.37;;;;;;;21.30;60.80;98398.03;5010295;28;20225;-64
2021/10/18 09:06:18;;;;;;;14.77;10.60;;;;;;;21.30;60.93;98398.03;5028943;28;20241;-64
2021/10/18 09:08:48;;;;;;;13.90;10.27;;;;;;;21.31;60.82;98402.31;5020143;28;20248;-64
2021/10/18 09:11:19;;;;;;;12.10;10.17;;;;;;;21.29;60.67;98397.16;5023047;28;20209;-64
2021/10/18 09:13:56;;;;;;;11.57;9.53;;;;;;;21.30;60.93;98392.91;5006631;28;20668;-64
2021/10/18 09:16:32;;;;;;;12.50;10.13;;;;;;;21.30;61.01;98395.47;5027010;28;20541;-64
2021/10/18 09:19:02;;;;;;;12.90;9.47;;;;;;;21.29;60.96;98392.03;5028214;28;20492;-64
2021/10/18 09:21:39;;;;;;;11.63;10.37;;;;;;;21.29;60.88;98393.75;5024906;28;20252;-64
2021/10/18 09:24:09;;;;;;;12.30;10.50;;;;;;;21.29;61.10;98388.63;5028270;28;20257;-64
2021/10/18 09:26:36;;;;;;;11.67;9.90;;;;;;;21.29;61.14;98393.75;5026272;28;20245;-63
2021/10/18 09:29:08;;;;;;;10.70;9.07;;;;;;;21.29;60.84;98397.16;5027719;28;20622;-64
2021/10/18 09:31:35;;;;;;;12.27;9.87;;;;;;;21.29;60.84;98401.41;5023908;28;20264;-64
2021/10/18 09:34:14;;;;;;;15.30;9.20;;;;;;;21.29;60.82;98396.28;5024799;28;20587;-64
2021/10/18 09:36:42;;;;;;;11.43;9.87;;;;;;;21.30;60.85;98405.69;5014953;28;20241;-64
2021/10/18 09:39:25;;;;;;;11.13;9.67;;;;;;;21.29;61.00;98407.38;5022631;28;20277;-64
2021/10/18 09:42:07;;;;;;;11.10;9.57;;;;;;;21.28;61.03;98408.19;5019571;28;20253;-64
2021/10/18 09:45:01;;;;;;;15.07;12.10;;;;;;;21.29;60.34;98409.06;5021266;28;20328;-64
2021/10/18 10:52:41;;;;;;;10.70;9.60;;;;;;;21.26;60.58;98381.66;5022518;28;20645;-63
2021/10/18 10:55:37;;;;;;;11.57;10.03;;;;;;;21.26;60.27;98386.78;5015717;28;20198;-64
2021/10/18 10:58:04;;;;;;;13.07;10.67;;;;;;;21.22;60.46;98366.13;4998129;28;20319;-64
2021/10/18 11:00:40;;;;;;;12.60;10.80;;;;;;;21.26;60.53;98385.94;4999142;28;20198;-63
2021/10/18 11:03:30;;;;;;;12.03;9.90;;;;;;;21.27;60.73;98380.00;5019525;28;20222;-64
2021/10/18 11:06:02;;;;;;;13.27;10.07;;;;;;;21.27;60.52;98378.31;5020610;28;20198;-64
2021/10/18 11:08:34;;;;;;;10.63;9.47;;;;;;;21.28;60.80;98382.63;5018317;28;20199;-64
2021/10/18 11:11:19;;;;;;;11.93;9.30;;;;;;;21.29;60.74;98379.25;5013541;28;20197;-64
2021/10/18 11:13:55;;;;;;;10.87;9.73;;;;;;;21.29;60.79;98384.38;5029081;23;20308;-68
2021/10/18 11:16:24;;;;;;;11.07;9.37;;;;;;;21.03;60.48;98341.47;5029652;28;20200;-66
2021/10/18 11:18:54;;;;;;;9.77;8.77;;;;;;;21.25;60.80;98374.81;5013530;28;20248;-66
2021/10/18 11:21:21;;;;;;;11.90;9.00;;;;;;;21.29;60.64;98373.28;5029651;28;20236;-66
2021/10/18 11:23:54;;;;;;;11.13;9.50;;;;;;;21.29;60.96;98368.16;5028594;28;20252;-66
2021/10/18 11:26:20;;;;;;;13.03;9.63;;;;;;;21.30;60.90;98373.34;5021979;28;20316;-65
2021/10/18 11:28:51;;;;;;;11.57;8.87;;;;;;;21.30;61.03;98375.91;5000840;28;20202;-67
2021/10/18 11:31:18;;;;;;;10.73;9.33;;;;;;;21.29;60.59;98376.69;5023767;28;20296;-66
2021/10/18 11:34:07;;;;;;;11.33;9.30;;;;;;;21.27;60.95;98374.88;5026347;28;20221;-66
2021/10/18 11:36:35;;;;;;;10.53;8.20;;;;;;;21.29;61.04;98373.28;5025568;28;20229;-65
2021/10/18 11:39:18;;;;;;;9.07;8.03;;;;;;;21.28;61.09;98372.41;5041407;28;20248;-68
2021/10/18 11:42:07;;;;;;;8.57;7.67;;;;;;;21.28;61.15;98369.84;5030366;28;20283;-67
2021/10/18 11:44:47;;;;;;;12.77;7.87;;;;;;;21.28;61.21;98366.41;5018847;28;20329;-66
2021/10/18 11:47:26;;;;;;;16.37;8.63;;;;;;;21.28;61.28;98366.41;5032171;28;20228;-65
2021/10/18 11:50:05;;;;;;;13.50;8.70;;;;;;;21.29;61.05;98365.63;5028321;28;20233;-66
2021/10/18 11:52:32;;;;;;;18.53;10.37;;;;;;;21.28;61.08;98357.06;5024047;28;20253;-63
2021/10/18 11:54:59;;;;;;;15.27;11.30;;;;;;;21.26;60.92;98351.00;5010037;28;20645;-69
2021/10/18 11:57:27;;;;;;;14.73;10.07;;;;;;;21.29;60.81;98350.28;5030956;28;20251;-66
2021/10/18 11:59:54;;;;;;;13.07;9.83;;;;;;;21.29;60.98;98348.56;5025496;28;20738;-66
2021/10/18 12:02:21;;;;;;;13.00;9.77;;;;;;;21.30;60.94;98352.91;5027505;28;20297;-66
2021/10/18 12:04:55;;;;;;;11.47;8.37;;;;;;;21.26;60.80;98340.75;5026202;28;20280;-67
2021/10/18 12:07:37;;;;;;;12.90;9.47;;;;;;;21.30;60.91;98346.91;5030088;28;21518;-67
2021/10/18 12:10:23;;;;;;;9.47;8.20;;;;;;;21.20;60.91;98327.72;5020804;28;20469;-66
2021/10/18 12:13:08;;;;;;;12.13;8.77;;;;;;;21.31;60.89;98353.75;5020647;28;20478;-68
2021/10/18 12:16:14;;;;;;;10.40;8.43;;;;;;;21.29;60.74;98353.69;5026410;28;20241;-66
2021/10/18 12:18:45;;;;;;;8.93;7.70;;;;;;;21.25;61.26;98343.25;5025723;28;20655;-66
2021/10/18 12:21:20;;;;;;;8.87;7.80;;;;;;;21.29;61.09;98352.84;5028976;28;20202;-66
2021/10/18 12:23:49;;;;;;;9.40;7.70;;;;;;;21.29;61.42;98347.72;5027378;28;20260;-68
2021/10/18 12:26:29;;;;;;;10.20;8.50;;;;;;;21.28;61.60;98344.28;5028866;28;20229;-64
2021/10/18 12:29:10;;;;;;;9.47;8.27;;;;;;;21.28;61.60;98338.28;5027787;28;20243;-66
2021/10/18 12:31:47;;;;;;;10.87;8.23;;;;;;;21.28;61.46;98341.72;5024405;28;20497;-64
2021/10/18 12:34:16;;;;;;;11.03;8.10;;;;;;;21.26;61.60;98343.31;5025457;28;20307;-68
2021/10/18 12:37:06;;;;;;;10.80;8.23;;;;;;;21.28;61.66;98345.94;5025696;28;20220;-66
2021/10/18 12:39:53;;;;;;;15.90;7.70;;;;;;;21.29;61.64;98351.13;5024781;28;20263;-66
2021/10/18 12:42:19;;;;;;;9.10;7.90;;;;;;;21.29;61.60;98342.59;5015539;28;20329;-66
2021/10/18 12:44:47;;;;;;;9.60;8.13;;;;;;;21.29;61.56;98350.28;5026215;28;20256;-65
2021/10/18 12:47:15;;;;;;;11.27;7.83;;;;;;;21.29;61.68;98346.00;5025755;28;20197;-66